AirNav   Bose Proflight Series 2 Wireless Aviation Headset
 
 1014 users online  

19FD Osceola Sheriff's Office - Bronson Highway Heliport
Kissimmee, Florida, USA

GOING TO KISSIMMEE?


FAA INFORMATION EFFECTIVE 07 NOVEMBER 2019

Location

FAA Identifier: 19FD
Lat/Long: 28-16-30.3600N 081-20-11.4000W
28-16.506000N 081-20.190000W
28.2751000,-81.3365000
(estimated)
Elevation: 66 ft. / 20 m (estimated)
From city: 4 miles E of KISSIMMEE, FL
Time zone: UTC -5 (UTC -4 during Daylight Saving Time)
Zip code: 34744

Heliport Operations

Heliport use: Private use. Permission required prior to landing
Activation date: 05/2005
Control tower: no
ARTCC: JACKSONVILLE CENTER
FSS: SAINT PETERSBURG FLIGHT SERVICE STATION
Attendance: CONTINUOUS
Wind indicator: lighted
Segmented circle: no

Heliport Communications

WX AWOS-3PT at ISM (5 nm W): 128.775 (407-847-0533)
WX ASOS at MCO (9 nm N): PHONE 407-855-5235
WX ASOS at ORL (16 nm N): PHONE 407-658-6753

Nearby radio navigation aids

VOR radial/distance  VOR name  Freq  Var
ORLr180/16.1ORLANDO VORTAC112.2000E
MLBr292/38.5MELBOURNE VOR/DME110.0007W
LALr063/39.8LAKELAND VORTAC116.0001E

Heliport Services

Runway Information

Helipad H1

Dimensions: 19 x 19 ft. / 6 x 6 m
Surface: concrete
Operational restrictions: FATO MEASURES 64 FT DIAMETER CIRCULAR HELIPAD.
Latitude: 28-16.506000N
Longitude: 081-20.190000W
Elevation: 66.0 ft.
Traffic pattern: leftleft

Heliport Ownership and Management from official FAA records

Ownership: Privately-owned
Owner: OSCEOLA CO SHERIFF'S OFC
2601 E. IRLO BRONSON MEMORIAL HWY
KISSIMMEE, FL 34744
Phone 407-348-2222
Manager: SGT. KRIS BREWER
4013 5TH STREET
KISSIMMEE, FL 34741
Phone (321) 697-4444
4013 5TH STREET KISSIMMEE, FL 34741

Additional Remarks

FOR CD CTC ORLANDO APCH AT 407-852-7553.

Instrument Procedures

There are no published instrument procedures at 19FD.

Some nearby airports with instrument procedures:

KISM - Kissimmee Gateway Airport (5 nm W)
KMCO - Orlando International Airport (9 nm N)
KORL - Executive Airport (16 nm N)
KGIF - Winter Haven Regional Airport (25 nm SW)
X07 - Lake Wales Municipal Airport (27 nm SW)
 
Loc | Ops | Rwys | IFR | FBO | Links
Com | Nav | Svcs | Stats | Notes


 
Area around 19FD (Osceola Sheriff's Office - Bronson Highway Heliport)
 
Road maps at: MapQuest Bing Google
 
Aerial photo
No photo
 
Sectional chart

 
Airport distance calculator
Flying to Osceola Sheriff's Office - Bronson Highway Heliport? Find the distance to fly.

From to 19FD

Sunrise and sunset
Times for 21-Nov-2019
 Local
(UTC-5)
 Zulu
(UTC)
Morning civil twilight06:2811:28
Sunrise06:5311:53
Sunset17:2922:29
Evening civil twilight17:5422:54

Current date and time
Zulu (UTC)  21-Nov-2019 13:56:36
Local (UTC-5)  21-Nov-2019 08:56:36
 
METAR
KISM 
5nm W 
211256Z 01006KT 10SM CLR 15/12 A3022 RMK AO2 SLP234 T01500117
KMCO 
8nm N 
211253Z 35008KT 10SM FEW040 16/12 A3021 RMK AO2 SLP229 T01560117
KORL 
16nm N 
211253Z 34005KT 10SM CLR 16/11 A3021 RMK AO2 SLP235 T01560111
TAF
KISM 
5nm W 
211129Z 2112/2212 36004KT P6SM SKC FM211700 07007KT P6SM FEW050 FM220000 VRB03KT P6SM FEW250
KMCO 
8nm N 
211129Z 2112/2218 36007KT P6SM SKC FM211500 07008KT P6SM FEW040 FM220000 VRB03KT P6SM FEW250 FM221500 14005KT P6SM FEW040 SCT250
NOTAMs
Click for the latest NOTAMs
NOTAMs are issued by the DoD/FAA and will open in a separate window not controlled by AirNav.

 

 
 

Would you like to see your business listed on this page?

 If your business provides an interesting product or service to pilots, flight crews, aircraft, or users of the Osceola Sheriff's Office - Bronson Highway Heliport, you should consider listing it here.  To start the listing process, click on the button below
 
Add a business
 

Other Pages about Osceola Sheriff's Office - Bronson Highway Heliport

Update a link
 
Copyright © AirNav, LLC. All rights reserved. Privacy Policy  Contact